This is the latest recevied weather packets stored in our database for station/object M0XDC. If no packets are shown the sender has not sent any weather packets the latest 10 day(s).
| Time | Temp. | Humidity | Pressure | Rain* | Wind** | Luminosity | Snow |
|---|---|---|---|---|---|---|---|
| 1777526105 | 9.44° C | 68% | 1021.6 hPa | 0 mm | - | - | - |
| 1777512603 | 10° C | 69% | 1021.5 hPa | 0 mm | - | - | - |
| 1777511257 | 10.56° C | 68% | 1021.8 hPa | 0 mm | - | - | - |
| 1777509457 | 10.56° C | 68% | 1021.9 hPa | 0 mm | - | - | - |
| 1777507657 | 10° C | 69% | 1021.9 hPa | 0 mm | - | - | - |
| 1777505403 | 10.56° C | 69% | 1022.1 hPa | 0 mm | - | - | - |
| 1777504505 | 10.56° C | 68% | 1022 hPa | 0 mm | - | - | - |
| 1777503605 | 10.56° C | 68% | 1022.1 hPa | 0 mm | - | - | - |
| 1777498203 | 10.56° C | 62% | 1022 hPa | 0 mm | - | - | - |
| 1777495503 | 11.11° C | 57% | 1021.9 hPa | 0 mm | - | - | - |
| 1777492805 | 11.67° C | 52% | 1021.8 hPa | 0 mm | - | - | - |
| 1777491003 | 12.22° C | 50% | 1021.8 hPa | 0 mm | - | - | - |
| 1777490105 | 12.22° C | 49% | 1021.5 hPa | 0 mm | - | - | - |
| 1777488303 | 12.78° C | 47% | 1021.4 hPa | 0 mm | - | - | - |
| 1777479441 | 15° C | 41% | 1021.9 hPa | 0 mm | - | - | - |
| 1777478857 | 15° C | 41% | 1021.9 hPa | 0 mm | - | - | - |
| 1777477057 | 15.56° C | 41% | 1021.9 hPa | 0 mm | - | - | - |
| 1777468505 | 15.56° C | 38% | 1022.4 hPa | 0 mm | - | - | - |
| 1777455005 | 14.44° C | 43% | 1022.7 hPa | 0 mm | - | - | - |
| 1777448838 | 12.78° C | 55% | 1022.2 hPa | 0 mm | - | - | - |
| 1777445103 | 11.11° C | 64% | 1022.2 hPa | 0 mm | - | - | - |
| 1777444203 | 10.56° C | 66% | 1022.2 hPa | 0 mm | - | - | - |
| 1777442857 | 10° C | 68% | 1021.9 hPa | 0 mm | - | - | - |
| 1777441057 | 8.89° C | 71% | 1021.7 hPa | 0 mm | - | - | - |
| 1777438805 | 8.33° C | 75% | 1021.6 hPa | 0 mm | - | - | - |
* Rain latest hour (hover to see other rain measurements)
** Current wind speed in m/s (hover to see current wind gust speed)